sensor_id;sensor_type;location;lat;lon;timestamp;P1;durP1;ratioP1;P2;durP2;ratioP2
44893;SDS011;30625;52.206;21.030;2024-02-21T00:01:50;6.90;;;3.65;;
44893;SDS011;30625;52.206;21.030;2024-02-21T00:04:16;16.75;;;4.57;;
44893;SDS011;30625;52.206;21.030;2024-02-21T00:06:41;12.35;;;3.78;;
44893;SDS011;30625;52.206;21.030;2024-02-21T00:09:07;8.88;;;3.30;;
44893;SDS011;30625;52.206;21.030;2024-02-21T00:11:34;7.97;;;3.53;;
44893;SDS011;30625;52.206;21.030;2024-02-21T00:14:00;11.82;;;3.88;;
44893;SDS011;30625;52.206;21.030;2024-02-21T00:16:26;7.57;;;3.70;;
44893;SDS011;30625;52.206;21.030;2024-02-21T00:18:51;8.70;;;4.40;;
44893;SDS011;30625;52.206;21.030;2024-02-21T00:21:17;11.70;;;3.72;;
44893;SDS011;30625;52.206;21.030;2024-02-21T00:23:43;10.25;;;3.78;;
44893;SDS011;30625;52.206;21.030;2024-02-21T00:26:14;10.48;;;3.40;;
44893;SDS011;30625;52.206;21.030;2024-02-21T00:28:40;7.50;;;3.40;;
44893;SDS011;30625;52.206;21.030;2024-02-21T00:31:06;5.03;;;3.53;;
44893;SDS011;30625;52.206;21.030;2024-02-21T00:33:32;6.15;;;3.25;;
44893;SDS011;30625;52.206;21.030;2024-02-21T00:35:57;9.98;;;3.63;;
44893;SDS011;30625;52.206;21.030;2024-02-21T00:38:23;9.18;;;3.42;;
44893;SDS011;30625;52.206;21.030;2024-02-21T00:40:48;14.05;;;4.03;;
44893;SDS011;30625;52.206;21.030;2024-02-21T00:43:14;9.75;;;3.72;;
44893;SDS011;30625;52.206;21.030;2024-02-21T00:45:40;11.43;;;4.68;;
44893;SDS011;30625;52.206;21.030;2024-02-21T00:48:05;10.90;;;3.95;;
44893;SDS011;30625;52.206;21.030;2024-02-21T00:50:31;9.50;;;3.10;;
44893;SDS011;30625;52.206;21.030;2024-02-21T00:52:57;13.13;;;3.70;;
44893;SDS011;30625;52.206;21.030;2024-02-21T00:55:23;11.27;;;3.60;;
44893;SDS011;30625;52.206;21.030;2024-02-21T00:57:48;11.30;;;4.05;;
44893;SDS011;30625;52.206;21.030;2024-02-21T01:00:14;6.57;;;3.13;;
44893;SDS011;30625;52.206;21.030;2024-02-21T01:02:40;12.20;;;3.33;;
44893;SDS011;30625;52.206;21.030;2024-02-21T01:05:06;10.95;;;4.68;;
44893;SDS011;30625;52.206;21.030;2024-02-21T01:07:32;14.38;;;4.57;;
44893;SDS011;30625;52.206;21.030;2024-02-21T01:09:58;8.32;;;4.32;;
44893;SDS011;30625;52.206;21.030;2024-02-21T01:12:23;11.50;;;4.53;;
44893;SDS011;30625;52.206;21.030;2024-02-21T01:14:49;17.52;;;5.20;;
44893;SDS011;30625;52.206;21.030;2024-02-21T01:17:15;11.18;;;4.82;;
44893;SDS011;30625;52.206;21.030;2024-02-21T01:19:41;12.82;;;4.80;;
44893;SDS011;30625;52.206;21.030;2024-02-21T01:22:06;14.10;;;3.70;;
44893;SDS011;30625;52.206;21.030;2024-02-21T01:24:33;11.80;;;4.30;;
44893;SDS011;30625;52.206;21.030;2024-02-21T01:26:59;10.90;;;5.03;;
44893;SDS011;30625;52.206;21.030;2024-02-21T01:29:24;13.40;;;5.18;;
44893;SDS011;30625;52.206;21.030;2024-02-21T01:31:50;11.70;;;4.10;;
44893;SDS011;30625;52.206;21.030;2024-02-21T01:34:16;13.27;;;5.55;;
44893;SDS011;30625;52.206;21.030;2024-02-21T01:36:42;9.52;;;4.78;;
44893;SDS011;30625;52.206;21.030;2024-02-21T01:39:07;10.82;;;4.10;;
44893;SDS011;30625;52.206;21.030;2024-02-21T01:41:33;9.60;;;4.20;;
44893;SDS011;30625;52.206;21.030;2024-02-21T01:43:59;12.13;;;4.72;;
44893;SDS011;30625;52.206;21.030;2024-02-21T01:46:24;11.45;;;4.82;;
44893;SDS011;30625;52.206;21.030;2024-02-21T01:48:55;10.07;;;4.18;;
44893;SDS011;30625;52.206;21.030;2024-02-21T01:51:22;7.80;;;4.07;;
44893;SDS011;30625;52.206;21.030;2024-02-21T01:53:49;7.80;;;4.35;;
44893;SDS011;30625;52.206;21.030;2024-02-21T01:56:16;12.68;;;4.70;;
44893;SDS011;30625;52.206;21.030;2024-02-21T01:58:42;8.75;;;5.20;;
44893;SDS011;30625;52.206;21.030;2024-02-21T02:01:09;10.68;;;5.32;;
44893;SDS011;30625;52.206;21.030;2024-02-21T02:03:35;8.43;;;4.07;;
44893;SDS011;30625;52.206;21.030;2024-02-21T02:06:05;10.27;;;5.22;;
44893;SDS011;30625;52.206;21.030;2024-02-21T02:08:34;10.52;;;4.53;;
44893;SDS011;30625;52.206;21.030;2024-02-21T02:11:00;14.60;;;5.38;;
44893;SDS011;30625;52.206;21.030;2024-02-21T02:15:51;12.07;;;5.60;;
44893;SDS011;30625;52.206;21.030;2024-02-21T02:18:18;14.73;;;5.05;;
44893;SDS011;30625;52.206;21.030;2024-02-21T02:20:44;15.32;;;6.35;;
44893;SDS011;30625;52.206;21.030;2024-02-21T02:23:23;8.55;;;5.22;;
44893;SDS011;30625;52.206;21.030;2024-02-21T02:25:49;14.63;;;6.28;;
44893;SDS011;30625;52.206;21.030;2024-02-21T02:28:19;11.10;;;6.63;;
44893;SDS011;30625;52.206;21.030;2024-02-21T02:30:45;13.70;;;5.85;;
44893;SDS011;30625;52.206;21.030;2024-02-21T02:35:37;17.30;;;6.10;;
44893;SDS011;30625;52.206;21.030;2024-02-21T02:38:03;14.52;;;5.57;;
44893;SDS011;30625;52.206;21.030;2024-02-21T02:40:29;13.30;;;6.40;;
44893;SDS011;30625;52.206;21.030;2024-02-21T02:45:21;12.50;;;6.40;;
44893;SDS011;30625;52.206;21.030;2024-02-21T02:47:48;15.10;;;6.50;;
44893;SDS011;30625;52.206;21.030;2024-02-21T02:50:14;19.70;;;6.88;;
44893;SDS011;30625;52.206;21.030;2024-02-21T02:52:40;17.85;;;5.75;;
44893;SDS011;30625;52.206;21.030;2024-02-21T02:55:06;14.55;;;5.60;;
44893;SDS011;30625;52.206;21.030;2024-02-21T02:57:32;13.65;;;5.95;;
44893;SDS011;30625;52.206;21.030;2024-02-21T02:59:58;18.98;;;7.32;;
44893;SDS011;30625;52.206;21.030;2024-02-21T03:02:24;13.68;;;5.50;;
44893;SDS011;30625;52.206;21.030;2024-02-21T03:04:50;15.63;;;6.25;;
44893;SDS011;30625;52.206;21.030;2024-02-21T03:07:16;11.30;;;5.82;;
44893;SDS011;30625;52.206;21.030;2024-02-21T03:09:42;14.40;;;5.90;;
44893;SDS011;30625;52.206;21.030;2024-02-21T03:12:08;11.18;;;6.10;;
44893;SDS011;30625;52.206;21.030;2024-02-21T03:14:34;11.20;;;5.65;;
44893;SDS011;30625;52.206;21.030;2024-02-21T03:19:26;19.90;;;6.38;;
44893;SDS011;30625;52.206;21.030;2024-02-21T03:21:52;17.15;;;7.28;;
44893;SDS011;30625;52.206;21.030;2024-02-21T03:24:18;14.98;;;6.57;;
44893;SDS011;30625;52.206;21.030;2024-02-21T03:26:44;13.30;;;6.35;;
44893;SDS011;30625;52.206;21.030;2024-02-21T03:29:12;15.77;;;7.50;;
44893;SDS011;30625;52.206;21.030;2024-02-21T03:31:39;11.13;;;6.60;;
44893;SDS011;30625;52.206;21.030;2024-02-21T03:36:31;14.93;;;6.53;;
44893;SDS011;30625;52.206;21.030;2024-02-21T03:38:56;14.77;;;6.50;;
44893;SDS011;30625;52.206;21.030;2024-02-21T03:41:22;16.55;;;7.55;;
44893;SDS011;30625;52.206;21.030;2024-02-21T03:43:48;19.00;;;6.40;;
44893;SDS011;30625;52.206;21.030;2024-02-21T03:46:14;16.25;;;6.63;;
44893;SDS011;30625;52.206;21.030;2024-02-21T03:51:05;10.48;;;6.78;;
44893;SDS011;30625;52.206;21.030;2024-02-21T03:53:31;10.77;;;5.95;;
44893;SDS011;30625;52.206;21.030;2024-02-21T03:55:57;18.45;;;6.90;;
44893;SDS011;30625;52.206;21.030;2024-02-21T03:58:28;13.65;;;6.10;;
44893;SDS011;30625;52.206;21.030;2024-02-21T04:00:53;15.70;;;6.53;;
44893;SDS011;30625;52.206;21.030;2024-02-21T04:03:19;16.17;;;7.60;;
44893;SDS011;30625;52.206;21.030;2024-02-21T04:05:45;13.98;;;5.78;;
44893;SDS011;30625;52.206;21.030;2024-02-21T04:08:11;22.38;;;6.90;;
44893;SDS011;30625;52.206;21.030;2024-02-21T04:10:37;13.82;;;5.85;;
44893;SDS011;30625;52.206;21.030;2024-02-21T04:13:03;13.30;;;5.70;;
44893;SDS011;30625;52.206;21.030;2024-02-21T04:15:31;13.85;;;6.10;;
44893;SDS011;30625;52.206;21.030;2024-02-21T04:17:57;21.77;;;7.78;;
44893;SDS011;30625;52.206;21.030;2024-02-21T04:20:22;11.82;;;5.90;;
44893;SDS011;30625;52.206;21.030;2024-02-21T04:22:48;11.07;;;5.63;;
44893;SDS011;30625;52.206;21.030;2024-02-21T04:25:14;19.02;;;7.18;;
44893;SDS011;30625;52.206;21.030;2024-02-21T04:27:40;12.13;;;6.55;;
44893;SDS011;30625;52.206;21.030;2024-02-21T04:32:32;16.55;;;6.78;;
44893;SDS011;30625;52.206;21.030;2024-02-21T04:34:58;15.63;;;7.18;;
44893;SDS011;30625;52.206;21.030;2024-02-21T04:37:24;11.43;;;5.97;;
44893;SDS011;30625;52.206;21.030;2024-02-21T04:39:50;19.52;;;8.05;;
44893;SDS011;30625;52.206;21.030;2024-02-21T04:42:16;8.00;;;4.75;;
44893;SDS011;30625;52.206;21.030;2024-02-21T04:44:41;15.85;;;7.15;;
44893;SDS011;30625;52.206;21.030;2024-02-21T04:47:07;20.67;;;7.70;;
44893;SDS011;30625;52.206;21.030;2024-02-21T04:49:33;20.20;;;7.70;;
44893;SDS011;30625;52.206;21.030;2024-02-21T04:51:59;16.50;;;8.68;;
44893;SDS011;30625;52.206;21.030;2024-02-21T04:54:25;15.57;;;7.82;;
44893;SDS011;30625;52.206;21.030;2024-02-21T04:56:51;12.75;;;7.40;;
44893;SDS011;30625;52.206;21.030;2024-02-21T04:59:17;28.50;;;8.13;;
44893;SDS011;30625;52.206;21.030;2024-02-21T05:01:43;19.33;;;7.90;;
44893;SDS011;30625;52.206;21.030;2024-02-21T05:04:09;16.70;;;7.55;;
44893;SDS011;30625;52.206;21.030;2024-02-21T05:06:38;13.15;;;7.88;;
44893;SDS011;30625;52.206;21.030;2024-02-21T05:09:04;24.05;;;8.38;;
44893;SDS011;30625;52.206;21.030;2024-02-21T05:11:34;25.30;;;9.05;;
44893;SDS011;30625;52.206;21.030;2024-02-21T05:14:00;13.27;;;8.25;;
44893;SDS011;30625;52.206;21.030;2024-02-21T05:16:26;16.52;;;8.75;;
44893;SDS011;30625;52.206;21.030;2024-02-21T05:18:52;14.07;;;7.65;;
44893;SDS011;30625;52.206;21.030;2024-02-21T05:21:18;17.98;;;8.55;;
44893;SDS011;30625;52.206;21.030;2024-02-21T05:26:09;18.83;;;7.53;;
44893;SDS011;30625;52.206;21.030;2024-02-21T05:28:35;21.67;;;7.85;;
44893;SDS011;30625;52.206;21.030;2024-02-21T05:31:01;13.48;;;7.43;;
44893;SDS011;30625;52.206;21.030;2024-02-21T05:33:27;15.60;;;6.88;;
44893;SDS011;30625;52.206;21.030;2024-02-21T05:35:53;21.38;;;7.65;;
44893;SDS011;30625;52.206;21.030;2024-02-21T05:38:18;14.02;;;7.18;;
44893;SDS011;30625;52.206;21.030;2024-02-21T05:40:44;13.18;;;6.85;;
44893;SDS011;30625;52.206;21.030;2024-02-21T05:43:10;19.45;;;7.15;;
44893;SDS011;30625;52.206;21.030;2024-02-21T05:45:36;12.82;;;6.57;;
44893;SDS011;30625;52.206;21.030;2024-02-21T05:48:02;13.63;;;6.93;;
44893;SDS011;30625;52.206;21.030;2024-02-21T05:50:28;19.60;;;7.57;;
44893;SDS011;30625;52.206;21.030;2024-02-21T05:52:54;18.85;;;6.93;;
44893;SDS011;30625;52.206;21.030;2024-02-21T05:57:46;20.55;;;7.90;;
44893;SDS011;30625;52.206;21.030;2024-02-21T06:00:12;13.48;;;6.50;;
44893;SDS011;30625;52.206;21.030;2024-02-21T06:02:39;13.45;;;7.25;;
44893;SDS011;30625;52.206;21.030;2024-02-21T06:05:05;15.80;;;7.97;;
44893;SDS011;30625;52.206;21.030;2024-02-21T06:07:34;13.35;;;7.28;;
44893;SDS011;30625;52.206;21.030;2024-02-21T06:10:01;22.55;;;9.05;;
44893;SDS011;30625;52.206;21.030;2024-02-21T06:12:27;14.60;;;8.10;;
44893;SDS011;30625;52.206;21.030;2024-02-21T10:42:57;18.35;;;6.00;;
44893;SDS011;30625;52.206;21.030;2024-02-21T10:45:30;17.23;;;6.32;;
44893;SDS011;30625;52.206;21.030;2024-02-21T10:48:01;10.90;;;5.05;;
44893;SDS011;30625;52.206;21.030;2024-02-21T10:53:34;11.23;;;6.25;;
44893;SDS011;30625;52.206;21.030;2024-02-21T10:58:45;15.35;;;6.03;;
44893;SDS011;30625;52.206;21.030;2024-02-21T11:01:12;19.17;;;6.45;;
44893;SDS011;30625;52.206;21.030;2024-02-21T11:03:40;16.90;;;6.18;;
44893;SDS011;30625;52.206;21.030;2024-02-21T11:06:12;18.15;;;6.07;;
44893;SDS011;30625;52.206;21.030;2024-02-21T11:08:39;15.68;;;6.78;;
44893;SDS011;30625;52.206;21.030;2024-02-21T11:11:05;16.13;;;6.75;;
44893;SDS011;30625;52.206;21.030;2024-02-21T11:13:35;17.10;;;7.07;;
44893;SDS011;30625;52.206;21.030;2024-02-21T11:16:09;16.38;;;6.97;;
44893;SDS011;30625;52.206;21.030;2024-02-21T11:19:09;21.95;;;7.28;;
44893;SDS011;30625;52.206;21.030;2024-02-21T11:21:56;15.45;;;6.85;;
44893;SDS011;30625;52.206;21.030;2024-02-21T11:24:32;16.08;;;6.60;;
44893;SDS011;30625;52.206;21.030;2024-02-21T11:27:12;20.45;;;7.88;;
44893;SDS011;30625;52.206;21.030;2024-02-21T11:29:59;16.95;;;6.90;;
44893;SDS011;30625;52.206;21.030;2024-02-21T11:32:25;24.75;;;8.98;;
44893;SDS011;30625;52.206;21.030;2024-02-21T11:34:57;17.98;;;7.05;;
44893;SDS011;30625;52.206;21.030;2024-02-21T11:37:32;15.73;;;8.13;;
44893;SDS011;30625;52.206;21.030;2024-02-21T11:40:05;23.10;;;10.32;;
44893;SDS011;30625;52.206;21.030;2024-02-21T11:42:35;18.17;;;9.75;;
44893;SDS011;30625;52.206;21.030;2024-02-21T11:45:01;17.63;;;9.85;;
44893;SDS011;30625;52.206;21.030;2024-02-21T11:47:43;17.48;;;8.25;;
44893;SDS011;30625;52.206;21.030;2024-02-21T11:50:11;20.38;;;9.75;;
44893;SDS011;30625;52.206;21.030;2024-02-21T11:52:40;27.95;;;11.20;;
44893;SDS011;30625;52.206;21.030;2024-02-21T11:55:08;22.40;;;10.32;;
44893;SDS011;30625;52.206;21.030;2024-02-21T11:57:43;28.50;;;11.77;;
44893;SDS011;30625;52.206;21.030;2024-02-21T12:02:53;25.95;;;10.93;;
44893;SDS011;30625;52.206;21.030;2024-02-21T12:05:28;16.50;;;10.02;;
44893;SDS011;30625;52.206;21.030;2024-02-21T12:13:11;27.15;;;11.95;;
44893;SDS011;30625;52.206;21.030;2024-02-21T12:15:47;24.80;;;11.38;;
44893;SDS011;30625;52.206;21.030;2024-02-21T12:18:28;20.65;;;10.50;;
44893;SDS011;30625;52.206;21.030;2024-02-21T12:20:56;25.17;;;11.35;;
44893;SDS011;30625;52.206;21.030;2024-02-21T12:23:46;27.98;;;10.88;;
44893;SDS011;30625;52.206;21.030;2024-02-21T12:26:12;32.75;;;12.25;;
44893;SDS011;30625;52.206;21.030;2024-02-21T12:31:11;26.58;;;12.48;;
44893;SDS011;30625;52.206;21.030;2024-02-21T12:33:39;28.83;;;10.70;;
44893;SDS011;30625;52.206;21.030;2024-02-21T12:36:05;19.40;;;12.00;;
44893;SDS011;30625;52.206;21.030;2024-02-21T12:46:23;30.08;;;11.38;;
44893;SDS011;30625;52.206;21.030;2024-02-21T12:48:52;29.52;;;13.55;;
44893;SDS011;30625;52.206;21.030;2024-02-21T12:51:29;24.10;;;12.20;;
44893;SDS011;30625;52.206;21.030;2024-02-21T12:54:00;28.55;;;11.90;;
44893;SDS011;30625;52.206;21.030;2024-02-21T12:59:03;23.55;;;12.68;;
44893;SDS011;30625;52.206;21.030;2024-02-21T13:01:33;28.50;;;13.25;;
44893;SDS011;30625;52.206;21.030;2024-02-21T13:04:08;25.73;;;12.80;;
44893;SDS011;30625;52.206;21.030;2024-02-21T13:06:39;18.58;;;10.98;;
44893;SDS011;30625;52.206;21.030;2024-02-21T13:11:36;27.52;;;13.25;;
44893;SDS011;30625;52.206;21.030;2024-02-21T13:14:04;30.45;;;11.48;;
44893;SDS011;30625;52.206;21.030;2024-02-21T13:16:31;24.23;;;12.50;;
44893;SDS011;30625;52.206;21.030;2024-02-21T13:21:44;21.88;;;12.43;;
44893;SDS011;30625;52.206;21.030;2024-02-21T13:24:48;24.27;;;11.75;;
44893;SDS011;30625;52.206;21.030;2024-02-21T13:27:15;20.08;;;11.27;;
44893;SDS011;30625;52.206;21.030;2024-02-21T13:30:17;24.95;;;10.88;;
44893;SDS011;30625;52.206;21.030;2024-02-21T13:32:44;29.98;;;12.07;;
44893;SDS011;30625;52.206;21.030;2024-02-21T13:35:16;21.45;;;11.45;;
44893;SDS011;30625;52.206;21.030;2024-02-21T13:37:42;27.20;;;11.80;;
44893;SDS011;30625;52.206;21.030;2024-02-21T13:40:17;21.40;;;11.13;;
44893;SDS011;30625;52.206;21.030;2024-02-21T13:42:44;18.70;;;10.75;;
44893;SDS011;30625;52.206;21.030;2024-02-21T13:47:40;19.67;;;11.10;;
44893;SDS011;30625;52.206;21.030;2024-02-21T13:50:08;29.17;;;11.73;;
44893;SDS011;30625;52.206;21.030;2024-02-21T13:52:37;18.85;;;10.95;;
44893;SDS011;30625;52.206;21.030;2024-02-21T13:55:04;27.67;;;11.98;;
44893;SDS011;30625;52.206;21.030;2024-02-21T13:57:39;23.35;;;11.63;;
44893;SDS011;30625;52.206;21.030;2024-02-21T14:00:45;17.98;;;11.00;;
44893;SDS011;30625;52.206;21.030;2024-02-21T14:16:30;19.73;;;11.07;;
44893;SDS011;30625;52.206;21.030;2024-02-21T14:18:56;25.27;;;10.93;;
44893;SDS011;30625;52.206;21.030;2024-02-21T14:21:22;23.08;;;11.27;;
44893;SDS011;30625;52.206;21.030;2024-02-21T14:23:51;15.55;;;9.27;;
44893;SDS011;30625;52.206;21.030;2024-02-21T14:34:37;20.33;;;9.98;;
44893;SDS011;30625;52.206;21.030;2024-02-21T14:37:04;18.15;;;10.88;;
44893;SDS011;30625;52.206;21.030;2024-02-21T14:39:32;20.13;;;10.70;;
44893;SDS011;30625;52.206;21.030;2024-02-21T14:41:59;22.13;;;11.82;;
44893;SDS011;30625;52.206;21.030;2024-02-21T14:44:26;25.15;;;10.95;;
44893;SDS011;30625;52.206;21.030;2024-02-21T14:46:52;18.35;;;10.15;;
44893;SDS011;30625;52.206;21.030;2024-02-21T14:49:18;16.05;;;9.48;;
44893;SDS011;30625;52.206;21.030;2024-02-21T14:51:44;29.38;;;9.98;;
44893;SDS011;30625;52.206;21.030;2024-02-21T14:54:10;18.77;;;10.90;;
44893;SDS011;30625;52.206;21.030;2024-02-21T14:56:35;15.77;;;8.98;;
44893;SDS011;30625;52.206;21.030;2024-02-21T14:59:02;18.92;;;9.85;;
44893;SDS011;30625;52.206;21.030;2024-02-21T15:01:29;18.30;;;8.80;;
44893;SDS011;30625;52.206;21.030;2024-02-21T15:04:03;19.55;;;8.20;;
44893;SDS011;30625;52.206;21.030;2024-02-21T15:06:31;11.07;;;7.72;;
44893;SDS011;30625;52.206;21.030;2024-02-21T15:08:59;12.38;;;8.25;;
44893;SDS011;30625;52.206;21.030;2024-02-21T15:11:34;13.85;;;8.65;;
44893;SDS011;30625;52.206;21.030;2024-02-21T15:16:27;22.70;;;9.32;;
44893;SDS011;30625;52.206;21.030;2024-02-21T15:21:24;16.13;;;8.90;;
44893;SDS011;30625;52.206;21.030;2024-02-21T15:23:59;14.45;;;7.68;;
44893;SDS011;30625;52.206;21.030;2024-02-21T15:26:30;20.52;;;8.85;;
44893;SDS011;30625;52.206;21.030;2024-02-21T15:28:57;16.27;;;7.97;;
44893;SDS011;30625;52.206;21.030;2024-02-21T15:33:59;19.48;;;8.63;;
44893;SDS011;30625;52.206;21.030;2024-02-21T15:36:26;14.82;;;7.75;;
44893;SDS011;30625;52.206;21.030;2024-02-21T15:38:54;12.80;;;8.05;;
44893;SDS011;30625;52.206;21.030;2024-02-21T15:41:20;15.43;;;7.22;;
44893;SDS011;30625;52.206;21.030;2024-02-21T15:46:20;19.75;;;8.27;;
44893;SDS011;30625;52.206;21.030;2024-02-21T15:48:52;15.80;;;7.38;;
44893;SDS011;30625;52.206;21.030;2024-02-21T15:51:20;15.00;;;8.70;;
44893;SDS011;30625;52.206;21.030;2024-02-21T16:07:41;12.02;;;6.22;;
44893;SDS011;30625;52.206;21.030;2024-02-21T16:10:08;14.63;;;7.85;;
44893;SDS011;30625;52.206;21.030;2024-02-21T16:12:36;11.40;;;6.75;;
44893;SDS011;30625;52.206;21.030;2024-02-21T16:17:40;14.60;;;8.68;;
44893;SDS011;30625;52.206;21.030;2024-02-21T16:20:06;13.10;;;7.82;;
44893;SDS011;30625;52.206;21.030;2024-02-21T16:22:36;16.60;;;7.18;;
44893;SDS011;30625;52.206;21.030;2024-02-21T16:27:36;10.38;;;6.10;;
44893;SDS011;30625;52.206;21.030;2024-02-21T16:30:27;14.68;;;8.05;;
44893;SDS011;30625;52.206;21.030;2024-02-21T16:32:55;12.20;;;6.22;;
44893;SDS011;30625;52.206;21.030;2024-02-21T16:37:53;13.10;;;7.85;;
44893;SDS011;30625;52.206;21.030;2024-02-21T16:40:27;12.02;;;6.93;;
44893;SDS011;30625;52.206;21.030;2024-02-21T16:42:53;14.13;;;7.05;;
44893;SDS011;30625;52.206;21.030;2024-02-21T16:45:25;13.30;;;7.35;;
44893;SDS011;30625;52.206;21.030;2024-02-21T16:47:53;26.00;;;8.80;;
44893;SDS011;30625;52.206;21.030;2024-02-21T16:50:19;17.15;;;6.70;;
44893;SDS011;30625;52.206;21.030;2024-02-21T16:52:51;9.23;;;6.47;;
44893;SDS011;30625;52.206;21.030;2024-02-21T16:55:17;15.77;;;8.23;;
44893;SDS011;30625;52.206;21.030;2024-02-21T16:57:43;15.32;;;7.97;;
44893;SDS011;30625;52.206;21.030;2024-02-21T17:00:09;12.55;;;7.05;;
44893;SDS011;30625;52.206;21.030;2024-02-21T17:02:39;14.43;;;7.50;;
44893;SDS011;30625;52.206;21.030;2024-02-21T17:05:09;16.90;;;7.40;;
44893;SDS011;30625;52.206;21.030;2024-02-21T17:07:35;17.90;;;7.93;;
44893;SDS011;30625;52.206;21.030;2024-02-21T17:10:02;16.00;;;8.57;;
44893;SDS011;30625;52.206;21.030;2024-02-21T17:12:32;15.07;;;7.85;;
44893;SDS011;30625;52.206;21.030;2024-02-21T17:15:05;20.88;;;8.75;;
44893;SDS011;30625;52.206;21.030;2024-02-21T17:17:52;13.25;;;8.43;;
44893;SDS011;30625;52.206;21.030;2024-02-21T17:20:18;14.38;;;7.63;;
44893;SDS011;30625;52.206;21.030;2024-02-21T17:22:44;17.35;;;8.38;;
44893;SDS011;30625;52.206;21.030;2024-02-21T17:25:10;10.65;;;7.13;;
44893;SDS011;30625;52.206;21.030;2024-02-21T17:27:38;20.13;;;8.07;;
44893;SDS011;30625;52.206;21.030;2024-02-21T17:30:04;20.38;;;8.35;;
44893;SDS011;30625;52.206;21.030;2024-02-21T17:32:30;17.70;;;8.13;;
44893;SDS011;30625;52.206;21.030;2024-02-21T17:37:22;22.73;;;8.38;;
44893;SDS011;30625;52.206;21.030;2024-02-21T17:39:48;14.73;;;7.80;;
44893;SDS011;30625;52.206;21.030;2024-02-21T17:42:15;14.07;;;7.88;;
44893;SDS011;30625;52.206;21.030;2024-02-21T17:44:41;17.55;;;8.60;;
44893;SDS011;30625;52.206;21.030;2024-02-21T17:47:10;12.93;;;7.72;;
44893;SDS011;30625;52.206;21.030;2024-02-21T17:49:39;17.42;;;8.27;;
44893;SDS011;30625;52.206;21.030;2024-02-21T17:52:09;19.58;;;8.70;;
44893;SDS011;30625;52.206;21.030;2024-02-21T17:54:36;24.17;;;9.20;;
44893;SDS011;30625;52.206;21.030;2024-02-21T17:57:04;18.20;;;8.73;;
44893;SDS011;30625;52.206;21.030;2024-02-21T17:59:30;17.33;;;8.23;;
44893;SDS011;30625;52.206;21.030;2024-02-21T18:01:56;17.00;;;9.00;;
44893;SDS011;30625;52.206;21.030;2024-02-21T18:04:23;17.38;;;7.80;;
44893;SDS011;30625;52.206;21.030;2024-02-21T18:06:49;13.93;;;8.15;;
44893;SDS011;30625;52.206;21.030;2024-02-21T18:09:15;22.05;;;8.60;;
44893;SDS011;30625;52.206;21.030;2024-02-21T18:11:41;14.05;;;8.73;;
44893;SDS011;30625;52.206;21.030;2024-02-21T18:16:33;16.23;;;7.88;;
44893;SDS011;30625;52.206;21.030;2024-02-21T18:19:01;13.98;;;8.07;;
44893;SDS011;30625;52.206;21.030;2024-02-21T18:21:29;21.08;;;8.70;;
44893;SDS011;30625;52.206;21.030;2024-02-21T18:26:21;17.13;;;8.93;;
44893;SDS011;30625;52.206;21.030;2024-02-21T18:28:48;14.25;;;8.13;;
44893;SDS011;30625;52.206;21.030;2024-02-21T18:31:15;21.35;;;9.82;;
44893;SDS011;30625;52.206;21.030;2024-02-21T18:33:41;18.65;;;9.60;;
44893;SDS011;30625;52.206;21.030;2024-02-21T18:36:09;14.63;;;8.05;;
44893;SDS011;30625;52.206;21.030;2024-02-21T18:38:37;15.20;;;10.07;;
44893;SDS011;30625;52.206;21.030;2024-02-21T18:41:03;14.23;;;7.35;;
44893;SDS011;30625;52.206;21.030;2024-02-21T18:43:29;18.50;;;9.23;;
44893;SDS011;30625;52.206;21.030;2024-02-21T18:45:56;13.90;;;8.10;;
44893;SDS011;30625;52.206;21.030;2024-02-21T18:48:22;16.25;;;8.57;;
44893;SDS011;30625;52.206;21.030;2024-02-21T18:50:51;27.88;;;9.45;;
44893;SDS011;30625;52.206;21.030;2024-02-21T18:53:23;19.23;;;10.00;;
44893;SDS011;30625;52.206;21.030;2024-02-21T18:55:49;24.15;;;9.70;;
44893;SDS011;30625;52.206;21.030;2024-02-21T19:00:41;19.60;;;9.60;;
44893;SDS011;30625;52.206;21.030;2024-02-21T19:03:06;24.88;;;9.65;;
44893;SDS011;30625;52.206;21.030;2024-02-21T19:05:32;16.20;;;9.07;;
44893;SDS011;30625;52.206;21.030;2024-02-21T19:10:35;19.88;;;8.98;;
44893;SDS011;30625;52.206;21.030;2024-02-21T19:13:02;17.33;;;10.10;;
44893;SDS011;30625;52.206;21.030;2024-02-21T19:15:29;20.67;;;10.55;;
44893;SDS011;30625;52.206;21.030;2024-02-21T19:17:55;16.60;;;9.30;;
44893;SDS011;30625;52.206;21.030;2024-02-21T19:20:24;19.08;;;9.88;;
44893;SDS011;30625;52.206;21.030;2024-02-21T19:22:50;18.70;;;10.98;;
44893;SDS011;30625;52.206;21.030;2024-02-21T19:25:16;18.92;;;10.75;;
44893;SDS011;30625;52.206;21.030;2024-02-21T19:27:46;15.68;;;9.70;;
44893;SDS011;30625;52.206;21.030;2024-02-21T19:30:12;22.15;;;11.10;;
44893;SDS011;30625;52.206;21.030;2024-02-21T19:32:39;14.65;;;9.73;;
44893;SDS011;30625;52.206;21.030;2024-02-21T19:35:05;25.35;;;11.57;;
44893;SDS011;30625;52.206;21.030;2024-02-21T19:37:36;22.33;;;11.02;;
44893;SDS011;30625;52.206;21.030;2024-02-21T19:40:06;26.60;;;11.13;;
44893;SDS011;30625;52.206;21.030;2024-02-21T19:42:32;19.40;;;10.85;;
44893;SDS011;30625;52.206;21.030;2024-02-21T19:44:58;20.65;;;9.55;;
44893;SDS011;30625;52.206;21.030;2024-02-21T19:47:24;18.63;;;10.48;;
44893;SDS011;30625;52.206;21.030;2024-02-21T19:49:52;31.13;;;10.73;;
44893;SDS011;30625;52.206;21.030;2024-02-21T19:52:19;21.50;;;10.30;;
44893;SDS011;30625;52.206;21.030;2024-02-21T19:54:44;22.70;;;11.10;;
44893;SDS011;30625;52.206;21.030;2024-02-21T19:57:10;19.65;;;11.82;;
44893;SDS011;30625;52.206;21.030;2024-02-21T19:59:38;19.48;;;11.18;;
44893;SDS011;30625;52.206;21.030;2024-02-21T20:04:30;18.30;;;11.68;;
44893;SDS011;30625;52.206;21.030;2024-02-21T20:06:55;18.02;;;10.73;;
44893;SDS011;30625;52.206;21.030;2024-02-21T20:09:22;29.60;;;11.45;;
44893;SDS011;30625;52.206;21.030;2024-02-21T20:11:48;21.33;;;10.93;;
44893;SDS011;30625;52.206;21.030;2024-02-21T20:14:15;17.67;;;10.43;;
44893;SDS011;30625;52.206;21.030;2024-02-21T20:16:42;18.38;;;9.77;;
44893;SDS011;30625;52.206;21.030;2024-02-21T20:19:10;20.73;;;10.55;;
44893;SDS011;30625;52.206;21.030;2024-02-21T20:21:38;23.67;;;11.02;;
44893;SDS011;30625;52.206;21.030;2024-02-21T20:24:07;28.38;;;12.55;;
44893;SDS011;30625;52.206;21.030;2024-02-21T20:26:38;18.27;;;9.85;;
44893;SDS011;30625;52.206;21.030;2024-02-21T20:29:12;23.73;;;10.93;;
44893;SDS011;30625;52.206;21.030;2024-02-21T20:31:40;15.73;;;9.63;;
44893;SDS011;30625;52.206;21.030;2024-02-21T20:34:14;21.67;;;12.38;;
44893;SDS011;30625;52.206;21.030;2024-02-21T20:36:44;23.83;;;11.38;;
44893;SDS011;30625;52.206;21.030;2024-02-21T20:39:12;30.08;;;11.25;;
44893;SDS011;30625;52.206;21.030;2024-02-21T20:41:39;22.45;;;10.77;;
44893;SDS011;30625;52.206;21.030;2024-02-21T20:44:11;12.77;;;9.15;;
44893;SDS011;30625;52.206;21.030;2024-02-21T20:46:42;19.05;;;9.65;;
44893;SDS011;30625;52.206;21.030;2024-02-21T20:49:07;17.20;;;11.25;;
44893;SDS011;30625;52.206;21.030;2024-02-21T20:51:33;25.83;;;12.73;;
44893;SDS011;30625;52.206;21.030;2024-02-21T20:53:59;21.13;;;10.57;;
44893;SDS011;30625;52.206;21.030;2024-02-21T20:56:25;17.05;;;9.95;;